Time;durP1;ratioP1;P1;durP2;ratioP2;P2;SDS_P1;SDS_P2;PMS_P1;PMS_P2;Temp;Humidity;BMP_temperature;BMP_pressure;BME280_temperature;BME280_humidity;BME280_pressure;Samples;Min_cycle;Max_cycle;Signal;HPM_P1;HPM_P2
2023/04/06 00:01:34;;;;;;;20.95;11.80;;;;;;;-0.40;69.00;94955.31;5103697;28;20089;-77
2023/04/06 00:03:59;;;;;;;20.63;11.60;;;;;;;0.01;68.46;95022.56;5100977;28;20032;-77
2023/04/06 00:06:25;;;;;;;18.52;11.75;;;;;;;0.06;67.66;95006.31;5103179;28;20027;-78
2023/04/06 00:08:51;;;;;;;19.52;11.77;;;;;;;-0.21;66.90;94964.78;5098606;28;20089;-77
2023/04/06 00:11:16;;;;;;;16.95;11.07;;;;;;;-0.04;66.95;94998.94;5103827;28;20488;-77
2023/04/06 00:13:42;;;;;;;14.73;9.30;;;;;;;-0.01;66.63;94994.13;5096196;28;20031;-77
2023/04/06 00:16:07;;;;;;;20.13;11.73;;;;;;;-0.48;66.91;94924.28;5104212;28;20063;-77
2023/04/06 00:18:33;;;;;;;20.92;11.18;;;;;;;0.08;66.71;94997.22;5103834;28;20066;-77
2023/04/06 00:20:58;;;;;;;20.73;12.35;;;;;;;-0.02;67.02;94996.94;5096539;28;20031;-77
2023/04/06 00:23:23;;;;;;;17.27;10.85;;;;;;;-0.01;66.80;94991.50;5101819;28;20042;-77
2023/04/06 00:25:49;;;;;;;19.65;11.25;;;;;;;-0.07;67.22;94966.25;5106566;28;20042;-77
2023/04/06 00:28:14;;;;;;;24.35;11.63;;;;;;;0.07;66.51;94987.03;5106333;28;20032;-77
2023/04/06 00:30:40;;;;;;;18.95;11.82;;;;;;;-0.22;66.80;94947.53;5101604;28;20119;-77
2023/04/06 00:33:06;;;;;;;17.42;10.95;;;;;;;-0.47;66.76;94903.25;5102054;28;20032;-77
2023/04/06 00:35:32;;;;;;;19.88;10.93;;;;;;;0.03;66.51;94981.44;5103525;28;20047;-78
2023/04/06 00:37:57;;;;;;;19.63;11.95;;;;;;;-0.11;66.85;94957.28;5103766;28;20044;-77
2023/04/06 00:40:23;;;;;;;18.10;11.68;;;;;;;-0.27;67.37;94942.16;5110663;28;20035;-77
2023/04/06 00:42:48;;;;;;;19.55;11.13;;;;;;;-0.63;67.03;94864.69;5093090;28;20040;-77
2023/04/06 00:45:14;;;;;;;17.10;11.13;;;;;;;0.06;67.22;94982.84;5110906;28;20461;-77
2023/04/06 00:47:39;;;;;;;21.60;11.18;;;;;;;-0.33;66.79;94916.97;5095468;28;20080;-77
2023/04/06 00:50:05;;;;;;;20.10;11.65;;;;;;;0.04;66.69;94966.59;5097759;28;20493;-77
2023/04/06 00:52:31;;;;;;;19.05;10.77;;;;;;;-0.25;66.71;94908.09;5103371;28;20044;-77
2023/04/06 00:54:56;;;;;;;20.23;11.48;;;;;;;0.15;66.95;94961.50;5102479;28;20154;-77
2023/04/06 00:57:22;;;;;;;19.52;11.88;;;;;;;0.24;66.39;94959.38;5094106;28;20035;-78
2023/04/06 00:59:47;;;;;;;18.45;11.18;;;;;;;-0.17;65.75;94894.78;5103606;28;20031;-77
2023/04/06 01:02:13;;;;;;;19.92;12.30;;;;;;;-0.73;66.11;94812.28;5104019;28;20035;-77
2023/04/06 01:04:38;;;;;;;17.75;10.48;;;;;;;-0.20;66.09;94897.81;5088466;28;20495;-78
2023/04/06 01:07:04;;;;;;;18.50;11.02;;;;;;;-0.25;66.32;94898.47;5104647;28;20035;-77
2023/04/06 01:09:30;;;;;;;15.45;10.57;;;;;;;0.01;66.03;94941.75;5105660;28;20034;-77
2023/04/06 01:11:56;;;;;;;18.10;11.02;;;;;;;-0.04;66.16;94942.38;5106196;28;20109;-77
2023/04/06 01:14:23;;;;;;;16.40;9.80;;;;;;;-0.58;66.36;94864.84;5098898;28;20024;-77
2023/04/06 01:16:48;;;;;;;19.58;11.45;;;;;;;-0.31;66.49;94906.34;5101957;28;20490;-78
2023/04/06 01:19:14;;;;;;;15.35;10.40;;;;;;;-0.18;66.74;94920.06;5091081;28;20057;-77
2023/04/06 01:21:40;;;;;;;17.17;10.68;;;;;;;-0.37;66.65;94868.88;5096109;28;20055;-77
2023/04/06 01:24:07;;;;;;;19.02;11.50;;;;;;;0.23;66.62;94953.38;5104850;28;20067;-77
2023/04/06 01:26:33;;;;;;;22.88;14.57;;;;;;;-0.02;67.47;94908.28;5104529;28;20039;-77
2023/04/06 01:28:59;;;;;;;24.33;13.50;;;;;;;-0.32;67.62;94868.25;5106106;28;20031;-78
2023/04/06 01:31:26;;;;;;;22.75;12.60;;;;;;;-0.01;68.01;94922.94;5104459;28;20545;-77
2023/04/06 01:33:52;;;;;;;24.02;13.05;;;;;;;0.04;68.00;94946.53;5105889;28;20042;-78
2023/04/06 01:36:18;;;;;;;21.10;12.57;;;;;;;0.08;67.78;94941.72;5105916;28;20028;-75
2023/04/06 01:38:43;;;;;;;19.02;11.77;;;;;;;0.07;67.61;94947.94;5105961;28;20046;-77
2023/04/06 01:41:09;;;;;;;19.90;11.95;;;;;;;0.06;68.30;94928.06;5107687;28;20024;-77
2023/04/06 01:43:35;;;;;;;21.30;13.30;;;;;;;-0.17;67.99;94882.56;5105934;28;20394;-77
2023/04/06 01:46:00;;;;;;;21.98;12.88;;;;;;;-0.25;68.33;94872.41;5098453;28;20500;-77
2023/04/06 01:48:29;;;;;;;21.83;12.60;;;;;;;-0.28;68.26;94864.19;5105074;28;20028;-77
2023/04/06 01:50:55;;;;;;;20.52;11.20;;;;;;;0.21;68.03;94929.34;5102926;28;20020;-77
2023/04/06 01:53:21;;;;;;;21.52;11.55;;;;;;;0.21;67.35;94928.53;5104558;28;20028;-77
2023/04/06 01:55:46;;;;;;;20.02;12.75;;;;;;;-0.20;67.87;94880.38;5100062;28;20057;-77
2023/04/06 01:58:12;;;;;;;18.45;11.77;;;;;;;0.10;68.80;94913.59;5093430;28;20036;-78
2023/04/06 02:00:39;;;;;;;22.30;12.18;;;;;;;0.00;69.01;94922.69;5108782;28;20382;-78
2023/04/06 02:03:05;;;;;;;18.65;11.40;;;;;;;0.02;68.89;94917.25;5097695;28;20030;-78
2023/04/06 02:05:33;;;;;;;17.77;11.73;;;;;;;-0.01;68.63;94892.44;5104928;28;20111;-78
2023/04/06 02:07:58;;;;;;;18.67;11.48;;;;;;;-0.15;68.60;94880.50;5093849;28;20047;-78
2023/04/06 02:10:24;;;;;;;20.80;12.15;;;;;;;0.09;68.99;94927.63;5109013;28;20027;-78
2023/04/06 02:12:50;;;;;;;20.90;12.00;;;;;;;-0.24;69.63;94868.78;5103332;28;20057;-78
2023/04/06 02:15:15;;;;;;;23.13;13.05;;;;;;;-0.61;70.33;94812.41;5103489;28;20039;-77
2023/04/06 02:17:42;;;;;;;23.40;12.70;;;;;;;0.03;69.87;94924.06;5102319;28;20035;-78
2023/04/06 02:20:08;;;;;;;22.73;12.80;;;;;;;-0.36;69.02;94857.44;5105581;28;20031;-78
2023/04/06 02:22:35;;;;;;;21.08;13.30;;;;;;;0.08;69.35;94919.00;5108402;28;20044;-78
2023/04/06 02:25:01;;;;;;;19.30;12.20;;;;;;;-0.09;69.86;94903.16;5105538;28;20050;-78
2023/04/06 02:27:26;;;;;;;18.05;11.60;;;;;;;-0.56;69.48;94821.16;5094674;28;20031;-78
2023/04/06 02:29:52;;;;;;;23.15;12.80;;;;;;;-0.42;69.55;94853.91;5099129;28;20034;-78
2023/04/06 02:32:17;;;;;;;19.95;11.73;;;;;;;-0.20;69.66;94885.59;5115690;27;20027;-77
2023/04/06 02:34:43;;;;;;;19.33;12.45;;;;;;;0.05;69.63;94916.84;5096927;28;20429;-77
2023/04/06 02:37:08;;;;;;;15.45;11.35;;;;;;;-0.35;69.17;94860.84;5115334;27;20031;-77
2023/04/06 02:39:33;;;;;;;17.80;11.23;;;;;;;-0.30;69.11;94880.03;5112972;27;20477;-77
2023/04/06 02:41:59;;;;;;;20.83;11.52;;;;;;;-0.33;69.26;94875.28;5113303;27;20028;-77
2023/04/06 02:44:25;;;;;;;20.75;12.75;;;;;;;-0.58;69.46;94840.59;5111848;28;20042;-77
2023/04/06 02:46:50;;;;;;;22.58;11.23;;;;;;;-0.26;69.03;94876.00;5113627;27;20497;-78
2023/04/06 02:49:16;;;;;;;20.00;11.50;;;;;;;0.03;69.02;94913.66;5112884;28;20024;-77
2023/04/06 02:51:41;;;;;;;17.25;11.32;;;;;;;-0.15;68.91;94890.94;5096743;28;20038;-77
2023/04/06 02:54:07;;;;;;;18.23;10.38;;;;;;;0.11;68.39;94928.22;5114839;28;20031;-77
2023/04/06 02:56:32;;;;;;;16.90;11.30;;;;;;;0.08;68.51;94929.44;5114722;27;20036;-77
2023/04/06 02:58:57;;;;;;;18.95;10.77;;;;;;;-0.24;69.00;94858.38;5113237;28;20126;-77
2023/04/06 03:01:23;;;;;;;21.17;11.13;;;;;;;-0.39;68.43;94821.41;5113270;28;20134;-77
2023/04/06 03:03:48;;;;;;;15.10;10.02;;;;;;;-0.07;68.05;94895.88;5108137;27;20036;-77
2023/04/06 03:06:14;;;;;;;17.27;11.02;;;;;;;-0.56;68.36;94802.13;5103955;28;20024;-78
2023/04/06 03:08:39;;;;;;;18.40;10.75;;;;;;;0.02;68.35;94904.22;5104428;28;20036;-78
2023/04/06 03:11:05;;;;;;;19.85;11.02;;;;;;;0.14;68.49;94915.56;5113517;28;20035;-78
2023/04/06 03:13:30;;;;;;;16.08;10.48;;;;;;;0.14;68.18;94922.59;5106965;27;20592;-77
2023/04/06 03:15:56;;;;;;;18.67;11.50;;;;;;;0.15;68.36;94916.38;5105517;27;20121;-77
2023/04/06 03:18:23;;;;;;;18.67;10.93;;;;;;;0.14;67.65;94892.09;5104457;28;20051;-79
2023/04/06 03:20:48;;;;;;;21.92;11.35;;;;;;;-0.25;67.56;94838.53;5102909;28;20040;-77
2023/04/06 03:23:14;;;;;;;18.17;10.60;;;;;;;0.16;67.25;94907.50;5114950;28;20024;-76
2023/04/06 03:25:39;;;;;;;16.20;9.75;;;;;;;0.09;66.82;94891.13;5113183;28;20048;-77
2023/04/06 03:28:05;;;;;;;14.45;9.05;;;;;;;-0.23;66.62;94856.56;5099035;28;20050;-77
2023/04/06 03:30:30;;;;;;;18.13;10.52;;;;;;;0.20;67.11;94919.13;5112903;28;20108;-77
2023/04/06 03:32:55;;;;;;;22.42;10.73;;;;;;;0.24;67.23;94909.84;5113783;27;20031;-77
2023/04/06 03:35:21;;;;;;;16.52;9.68;;;;;;;-0.13;66.69;94860.25;5114947;28;20043;-77
2023/04/06 03:37:46;;;;;;;16.70;9.18;;;;;;;0.13;66.97;94913.97;5112660;28;20026;-77
2023/04/06 03:40:12;;;;;;;14.80;9.80;;;;;;;-0.32;66.97;94822.16;5094507;28;20768;-77
2023/04/06 03:42:37;;;;;;;18.33;10.93;;;;;;;0.27;67.18;94907.59;5110481;28;20043;-78
2023/04/06 03:45:03;;;;;;;16.42;10.65;;;;;;;0.29;66.78;94913.41;5111954;28;20061;-77
2023/04/06 03:47:28;;;;;;;19.35;10.50;;;;;;;0.23;66.80;94903.06;5093119;28;20126;-78
2023/04/06 03:49:55;;;;;;;16.42;10.35;;;;;;;-0.33;66.88;94820.56;5104591;28;20031;-77
2023/04/06 03:52:22;;;;;;;15.52;9.68;;;;;;;0.36;66.20;94897.69;5102147;28;20402;-77
2023/04/06 03:54:48;;;;;;;15.85;9.70;;;;;;;-0.54;66.40;94763.66;5101499;28;20135;-78
2023/04/06 03:57:13;;;;;;;16.33;10.13;;;;;;;-0.05;66.57;94836.50;5099436;28;20119;-78
2023/04/06 03:59:39;;;;;;;19.58;11.60;;;;;;;0.03;66.57;94850.28;5102639;28;20062;-77
2023/04/06 04:02:05;;;;;;;22.63;13.63;;;;;;;0.24;68.77;94909.84;5110643;28;20099;-77
2023/04/06 04:04:30;;;;;;;18.17;11.32;;;;;;;0.24;68.24;94925.50;5110680;28;20454;-78
2023/04/06 04:06:55;;;;;;;22.80;12.63;;;;;;;0.20;68.70;94914.69;5101836;28;20028;-77
2023/04/06 04:09:21;;;;;;;24.42;12.73;;;;;;;-0.58;69.24;94804.13;5097849;28;20123;-77
2023/04/06 04:11:46;;;;;;;24.42;14.02;;;;;;;-0.02;69.82;94893.44;5088140;28;20023;-78
2023/04/06 04:14:12;;;;;;;24.13;12.60;;;;;;;0.11;69.09;94921.19;5104794;28;20032;-78
2023/04/06 04:16:39;;;;;;;22.27;12.65;;;;;;;0.23;68.57;94911.66;5087946;28;20035;-78
2023/04/06 04:19:05;;;;;;;21.48;10.65;;;;;;;0.23;67.67;94911.66;5086316;28;20097;-78
2023/04/06 04:21:31;;;;;;;25.73;12.18;;;;;;;0.02;68.05;94875.56;5078668;27;20063;-80
2023/04/06 04:23:57;;;;;;;24.80;13.02;;;;;;;-0.05;68.79;94865.19;5093684;28;20758;-77
2023/04/06 04:26:23;;;;;;;26.33;13.40;;;;;;;0.25;69.82;94916.66;5078098;28;20054;-78
2023/04/06 04:28:48;;;;;;;19.88;11.80;;;;;;;-0.51;68.49;94791.84;5071105;27;20510;-79
2023/04/06 04:31:14;;;;;;;23.40;12.90;;;;;;;-0.09;68.41;94845.00;5095680;27;20049;-79
2023/04/06 04:33:39;;;;;;;23.73;12.27;;;;;;;0.21;67.82;94899.84;5092708;27;20100;-78
2023/04/06 04:36:05;;;;;;;19.48;11.20;;;;;;;0.19;67.34;94883.63;5081781;28;20028;-79
2023/04/06 04:38:30;;;;;;;21.55;12.52;;;;;;;-0.17;67.24;94830.44;5085750;28;20061;-78
2023/04/06 04:40:56;;;;;;;23.90;13.40;;;;;;;0.38;68.00;94929.59;5096031;27;20083;-80
2023/04/06 04:43:21;;;;;;;27.15;13.05;;;;;;;0.36;68.37;94910.75;5085739;28;20073;-78
2023/04/06 04:45:47;;;;;;;20.05;11.68;;;;;;;0.06;67.18;94855.88;5094884;28;20042;-78
2023/04/06 04:48:12;;;;;;;23.23;12.73;;;;;;;0.36;67.73;94887.25;5084557;28;20032;-79
2023/04/06 04:50:40;;;;;;;24.15;14.77;;;;;;;0.04;67.64;94829.22;5090201;27;20581;-79
2023/04/06 04:53:06;;;;;;;29.17;14.70;;;;;;;-0.12;67.85;94804.50;5090072;28;20032;-80
2023/04/06 04:55:32;;;;;;;23.02;12.02;;;;;;;-0.12;67.00;94819.34;5098169;28;20854;-78
2023/04/06 04:57:57;;;;;;;22.63;12.32;;;;;;;0.55;66.73;94906.31;5089953;28;20137;-79
2023/04/06 05:00:24;;;;;;;22.42;12.52;;;;;;;0.56;66.67;94924.38;5097833;28;20035;-78
2023/04/06 05:02:49;;;;;;;22.30;12.18;;;;;;;-0.13;66.50;94831.56;5081620;28;20146;-79
2023/04/06 05:05:15;;;;;;;21.65;12.55;;;;;;;0.25;66.62;94870.50;5058191;28;20115;-79
2023/04/06 05:07:40;;;;;;;24.10;11.25;;;;;;;0.17;66.28;94849.13;5060787;28;20356;-78
2023/04/06 05:10:06;;;;;;;18.42;11.30;;;;;;;0.21;66.95;94866.75;5085340;27;21166;-79
2023/04/06 05:12:32;;;;;;;20.65;12.02;;;;;;;0.13;66.61;94859.22;5062059;28;20039;-80
2023/04/06 05:14:57;;;;;;;23.00;11.65;;;;;;;0.12;66.39;94873.25;5067707;27;20031;-79
2023/04/06 05:17:24;;;;;;;22.67;11.98;;;;;;;0.17;67.15;94862.97;5067604;28;20088;-79
2023/04/06 05:19:50;;;;;;;23.73;13.02;;;;;;;0.00;66.90;94851.53;5082853;28;20123;-79
2023/04/06 05:22:17;;;;;;;23.42;13.68;;;;;;;0.32;67.07;94879.06;5090192;28;20038;-79
2023/04/06 05:24:43;;;;;;;25.33;13.02;;;;;;;0.49;67.13;94910.59;5061430;28;20035;-80
2023/04/06 05:27:09;;;;;;;23.60;13.82;;;;;;;0.12;67.13;94854.22;5063481;28;20054;-79
2023/04/06 05:29:35;;;;;;;20.77;12.27;;;;;;;0.08;67.28;94855.66;5088905;28;20040;-80
2023/04/06 05:32:01;;;;;;;23.02;13.07;;;;;;;0.21;67.95;94889.41;5087726;28;20038;-80
2023/04/06 05:34:26;;;;;;;22.05;13.63;;;;;;;-0.64;68.22;94755.50;5088704;27;20047;-79
2023/04/06 05:36:52;;;;;;;30.95;14.60;;;;;;;-0.04;68.69;94838.13;5081469;27;20032;-79
2023/04/06 05:39:17;;;;;;;26.92;15.05;;;;;;;0.50;68.81;94908.78;5085275;27;20035;-80
2023/04/06 05:41:42;;;;;;;34.75;16.75;;;;;;;-0.21;68.87;94802.38;5053666;28;20111;-79
2023/04/06 05:44:08;;;;;;;37.90;15.52;;;;;;;0.28;68.49;94851.03;5083485;27;20035;-78
2023/04/06 05:46:34;;;;;;;26.63;13.05;;;;;;;0.18;68.38;94851.53;5067665;28;20035;-78
2023/04/06 05:48:59;;;;;;;22.80;13.48;;;;;;;0.59;68.16;94918.72;5084132;27;20028;-79
2023/04/06 05:51:26;;;;;;;23.83;13.52;;;;;;;0.08;68.94;94863.50;5070315;28;20123;-79
2023/04/06 05:53:53;;;;;;;26.20;14.18;;;;;;;0.39;68.90;94912.91;5066191;28;20047;-80
2023/04/06 05:56:18;;;;;;;29.77;15.93;;;;;;;-0.05;69.54;94830.50;5063116;28;20040;-79
2023/04/06 05:58:44;;;;;;;32.05;17.27;;;;;;;-0.08;69.67;94808.25;5071126;28;20046;-79
2023/04/06 06:01:10;;;;;;;29.83;15.93;;;;;;;-0.80;69.34;94726.41;5066415;28;20039;-81
2023/04/06 06:03:36;;;;;;;28.88;15.10;;;;;;;-0.25;69.38;94785.59;5033792;27;20043;-77
2023/04/06 06:06:03;;;;;;;31.02;14.77;;;;;;;0.33;69.69;94892.91;5056190;28;20117;-79
2023/04/06 06:08:28;;;;;;;32.03;16.42;;;;;;;-0.63;70.31;94744.09;5057107;28;20043;-77
2023/04/06 06:10:54;;;;;;;27.23;16.13;;;;;;;0.44;70.24;94905.22;5061779;28;20303;-81
2023/04/06 06:13:20;;;;;;;36.00;17.95;;;;;;;0.13;70.19;94833.13;5077557;27;20232;-83
2023/04/06 06:15:46;;;;;;;38.40;20.23;;;;;;;-0.08;70.81;94808.25;5084707;27;21211;-78
2023/04/06 06:18:11;;;;;;;39.70;19.83;;;;;;;0.27;70.79;94863.28;5078078;28;20067;-78
2023/04/06 06:20:37;;;;;;;39.28;19.67;;;;;;;0.49;71.03;94913.19;5085619;28;20047;-77
2023/04/06 06:23:11;;;;;;;27.27;16.35;;;;;;;-0.19;70.08;94788.13;5067297;27;20455;-79
2023/04/06 06:29:18;;;;;;;26.60;14.45;;;;;;;-4.37;68.86;94164.91;5049782;28;20054;-79
2023/04/06 06:31:43;;;;;;;30.77;16.73;;;;;;;-2.32;69.23;94450.44;5037165;28;20092;-78
2023/04/06 06:34:08;;;;;;;27.80;15.90;;;;;;;-0.28;69.45;94778.22;5083572;28;20043;-80
2023/04/06 06:36:37;;;;;;;33.25;17.95;;;;;;;-2.20;69.83;94466.13;5065511;28;20034;-80
2023/04/06 06:39:03;;;;;;;28.83;14.48;;;;;;;0.69;70.06;94907.75;5083465;28;20055;-78
2023/04/06 06:41:35;;;;;;;34.70;17.38;;;;;;;-0.34;69.61;94729.56;5063757;28;20470;-77
2023/04/06 06:44:01;;;;;;;29.23;15.57;;;;;;;0.87;69.37;94920.00;5076354;28;20035;-80
2023/04/06 06:46:26;;;;;;;27.30;15.30;;;;;;;0.54;69.30;94858.53;5079397;28;20038;-77
2023/04/06 06:48:53;;;;;;;28.63;16.40;;;;;;;0.05;69.54;94809.16;5061273;28;20124;-78
2023/04/06 06:51:20;;;;;;;26.75;15.02;;;;;;;0.78;69.28;94917.69;5064747;28;20070;-80
2023/04/06 06:53:47;;;;;;;31.08;14.93;;;;;;;0.78;68.66;94916.88;5066587;28;20047;-80
2023/04/06 06:56:12;;;;;;;30.88;15.73;;;;;;;-0.10;69.26;94762.59;5070687;28;20089;-80
2023/04/06 06:58:38;;;;;;;31.98;16.13;;;;;;;-0.09;69.00;94757.16;5063194;28;20071;-81
2023/04/06 07:01:04;;;;;;;29.48;15.57;;;;;;;-0.08;69.13;94776.97;5066789;28;20035;-81
2023/04/06 07:03:30;;;;;;;27.42;15.25;;;;;;;0.72;69.15;94879.41;5084809;28;20028;-79
2023/04/06 07:05:56;;;;;;;27.95;14.43;;;;;;;0.71;68.73;94877.81;5071254;28;20032;-82
2023/04/06 07:08:22;;;;;;;25.77;14.98;;;;;;;1.00;68.08;94904.16;5081254;28;20358;-84
2023/04/06 07:10:50;;;;;;;29.60;17.55;;;;;;;0.74;68.65;94833.00;5053750;28;21750;-77
2023/04/06 07:13:22;;;;;;;29.80;17.27;;;;;;;0.66;68.30;94809.81;5073094;28;20031;-77
2023/04/06 07:15:48;;;;;;;28.08;15.65;;;;;;;1.50;68.01;94902.88;5067912;27;20031;-78
2023/04/06 07:18:13;;;;;;;28.88;16.08;;;;;;;1.07;67.19;94829.94;5086611;28;20054;-77
2023/04/06 07:20:39;;;;;;;28.67;14.40;;;;;;;1.45;66.58;94921.03;5072717;28;20032;-78
2023/04/06 07:23:05;;;;;;;30.02;15.57;;;;;;;1.16;67.11;94848.69;5061228;28;20032;-77
2023/04/06 07:25:30;;;;;;;32.35;16.05;;;;;;;1.38;67.23;94915.09;5077627;28;20040;-77
2023/04/06 07:27:56;;;;;;;24.92;14.15;;;;;;;0.67;66.60;94779.31;5066280;28;20027;-77
2023/04/06 07:30:22;;;;;;;24.55;14.07;;;;;;;0.78;66.41;94846.41;5079713;27;20040;-77
2023/04/06 07:32:48;;;;;;;25.63;14.48;;;;;;;0.92;67.27;94868.72;5085689;27;20692;-77
2023/04/06 07:35:14;;;;;;;32.53;15.30;;;;;;;0.92;67.18;94829.53;5082575;27;20067;-77
2023/04/06 07:37:40;;;;;;;33.80;15.65;;;;;;;1.04;66.80;94843.44;5082418;27;20488;-78
2023/04/06 07:40:06;;;;;;;24.42;13.07;;;;;;;1.24;66.33;94853.59;5085060;28;20038;-77
2023/04/06 07:42:34;;;;;;;30.73;16.63;;;;;;;1.29;67.44;94866.00;5065368;28;21020;-78
2023/04/06 07:45:23;;;;;;;32.72;17.42;;;;;;;1.44;66.62;94895.94;5086836;27;20039;-77
2023/04/06 07:47:49;;;;;;;30.00;15.98;;;;;;;0.10;66.48;94677.13;5082385;27;20873;-77
2023/04/06 07:50:15;;;;;;;23.77;12.85;;;;;;;1.40;65.96;94892.16;5083466;27;20031;-77
2023/04/06 07:52:41;;;;;;;29.13;15.25;;;;;;;0.77;66.50;94805.66;5080317;27;20031;-78
2023/04/06 07:55:07;;;;;;;30.10;13.88;;;;;;;0.95;66.42;94830.91;5058235;28;20079;-78
2023/04/06 07:57:32;;;;;;;27.13;15.23;;;;;;;0.71;66.91;94775.22;5059162;28;20035;-78
2023/04/06 07:59:58;;;;;;;29.17;15.38;;;;;;;1.50;66.58;94887.19;5062711;28;20023;-77
2023/04/06 08:02:23;;;;;;;26.40;15.20;;;;;;;1.46;66.29;94895.69;5063152;28;20027;-77
2023/04/06 08:04:48;;;;;;;26.17;15.25;;;;;;;1.48;66.81;94880.59;5059872;28;20126;-77
2023/04/06 08:07:15;;;;;;;29.50;15.63;;;;;;;1.60;66.43;94884.03;5081461;27;20729;-77
2023/04/06 08:09:40;;;;;;;23.65;14.82;;;;;;;0.92;66.40;94810.47;5067356;27;20032;-77
2023/04/06 08:12:06;;;;;;;27.88;13.52;;;;;;;1.29;65.66;94848.53;5072874;28;20130;-77
2023/04/06 08:14:31;;;;;;;26.63;14.35;;;;;;;0.85;65.82;94760.97;5088532;27;20665;-77
2023/04/06 08:16:57;;;;;;;24.38;13.38;;;;;;;1.33;65.71;94828.75;5072749;28;20109;-77
2023/04/06 08:19:22;;;;;;;28.17;15.23;;;;;;;1.71;64.89;94859.72;5066670;28;20035;-77
2023/04/06 08:21:48;;;;;;;21.13;9.98;;;;;;;1.44;61.88;94838.44;5068359;28;20811;-77
2023/04/06 08:24:14;;;;;;;22.40;13.23;;;;;;;1.58;63.54;94846.88;5083958;27;20529;-77
2023/04/06 08:26:41;;;;;;;21.58;12.35;;;;;;;1.36;63.68;94835.38;5082965;28;20722;-77
2023/04/06 08:29:09;;;;;;;20.00;11.63;;;;;;;1.53;63.70;94857.97;5064865;28;20118;-77
2023/04/06 08:31:35;;;;;;;20.35;12.15;;;;;;;1.86;64.22;94903.72;5052562;28;20113;-77
2023/04/06 08:34:02;;;;;;;23.35;13.25;;;;;;;1.71;64.24;94874.59;5050270;27;20097;-77
2023/04/06 08:36:27;;;;;;;21.50;13.05;;;;;;;0.99;63.64;94728.41;5030606;28;20038;-77
2023/04/06 08:38:53;;;;;;;23.70;12.05;;;;;;;0.27;62.85;94607.69;5604542;22;20462;-90
2023/04/06 08:41:21;;;;;;;24.33;12.82;;;;;;;1.87;62.43;94853.81;5015503;28;20227;-89
2023/04/06 08:43:49;;;;;;;20.88;12.27;;;;;;;1.94;62.76;94861.56;5050702;22;20106;-79
2023/04/06 08:46:15;;;;;;;24.35;12.15;;;;;;;2.28;62.00;94896.59;5035751;28;20115;-79
2023/04/06 08:48:42;;;;;;;20.90;13.15;;;;;;;2.42;62.07;94895.31;5023956;28;20036;-81
2023/04/06 08:51:11;;;;;;;22.63;11.82;;;;;;;2.11;62.18;94872.94;5046543;28;20093;-77
2023/04/06 08:53:37;;;;;;;27.50;13.77;;;;;;;2.27;61.97;94872.25;5004446;28;20048;-76
2023/04/06 08:56:04;;;;;;;25.63;12.95;;;;;;;2.62;61.45;94893.13;5027021;28;20036;-76
2023/04/06 08:58:34;;;;;;;25.63;12.60;;;;;;;2.56;61.50;94901.09;5031152;28;20044;-76
2023/04/06 09:01:06;;;;;;;25.30;13.60;;;;;;;2.60;60.98;94897.00;5049282;28;20172;-76
2023/04/06 09:03:34;;;;;;;20.98;11.63;;;;;;;2.29;61.34;94870.19;5041419;28;20127;-76
2023/04/06 09:06:00;;;;;;;20.20;10.60;;;;;;;2.46;60.36;94891.22;5049623;28;20040;-76
2023/04/06 09:08:26;;;;;;;20.80;12.60;;;;;;;2.32;61.42;94882.81;5046630;28;20086;-78
2023/04/06 09:10:52;;;;;;;19.35;12.02;;;;;;;2.54;61.09;94883.00;5049485;28;20163;-77
2023/04/06 09:13:18;;;;;;;22.63;13.35;;;;;;;2.51;60.81;94877.44;5043756;28;20178;-76
2023/04/06 09:15:43;;;;;;;18.05;11.07;;;;;;;2.33;59.94;94886.22;5049705;28;20037;-77
2023/04/06 09:18:10;;;;;;;18.45;11.10;;;;;;;2.20;60.12;94836.75;5050851;28;20051;-76
2023/04/06 09:20:35;;;;;;;28.83;11.95;;;;;;;2.43;60.53;94868.13;5031537;28;20040;-76
2023/04/06 09:23:01;;;;;;;18.90;10.30;;;;;;;1.94;58.78;94759.56;5047325;28;20025;-76
2023/04/06 09:25:26;;;;;;;18.33;12.00;;;;;;;2.52;60.03;94869.34;5051769;28;20048;-77
2023/04/06 09:28:01;;;;;;;23.02;12.80;;;;;;;2.68;60.15;94886.16;5050529;28;20043;-77
2023/04/06 09:30:27;;;;;;;21.98;12.68;;;;;;;1.90;59.50;94758.44;5031425;28;20044;-80
2023/04/06 09:32:55;;;;;;;25.40;14.10;;;;;;;2.82;60.35;94861.31;5046025;28;20036;-80
2023/04/06 09:35:22;;;;;;;19.58;13.13;;;;;;;2.95;59.17;94860.25;5045141;28;20055;-76
2023/04/06 09:37:51;;;;;;;21.73;11.18;;;;;;;2.85;59.17;94846.94;5047628;28;20043;-76
2023/04/06 09:40:18;;;;;;;23.92;12.70;;;;;;;2.63;59.42;94850.22;5051574;28;20518;-79
2023/04/06 09:42:47;;;;;;;19.58;12.07;;;;;;;3.01;58.98;94885.50;5051460;28;20052;-77
2023/04/06 09:45:14;;;;;;;21.05;12.00;;;;;;;2.99;58.74;94866.59;5051773;28;20036;-79
2023/04/06 09:47:43;;;;;;;24.48;13.48;;;;;;;3.38;59.26;94870.19;5047061;28;20319;-79
2023/04/06 09:50:11;;;;;;;23.90;13.73;;;;;;;3.58;58.69;94872.38;5047388;28;21492;-78
2023/04/06 09:52:54;;;;;;;37.22;14.50;;;;;;;3.58;57.62;94838.28;5043343;28;20120;-78
2023/04/06 09:55:40;;;;;;;19.80;11.68;;;;;;;2.89;56.81;94754.59;5043164;28;20032;-76
2023/04/06 09:58:09;;;;;;;21.08;11.32;;;;;;;3.20;57.25;94800.44;5028333;28;20040;-76
2023/04/06 10:00:45;;;;;;;21.77;11.23;;;;;;;3.48;56.65;94831.84;5042937;28;20063;-77
2023/04/06 10:03:31;;;;;;;20.60;11.40;;;;;;;3.42;57.27;94866.09;5046429;28;20736;-76
2023/04/06 10:06:01;;;;;;;20.02;12.25;;;;;;;3.63;55.94;94838.38;5046813;28;20058;-78
2023/04/06 10:08:27;;;;;;;20.08;11.73;;;;;;;3.82;55.42;94847.56;5046451;28;21492;-78
2023/04/06 10:10:54;;;;;;;26.08;13.57;;;;;;;4.23;54.95;94868.16;5043214;28;20040;-77
2023/04/06 10:13:21;;;;;;;19.85;12.57;;;;;;;4.58;54.50;94878.31;5047200;28;20043;-80
2023/04/06 10:15:48;;;;;;;17.17;9.95;;;;;;;3.78;53.48;94807.13;5047753;28;20048;-77
2023/04/06 10:18:15;;;;;;;16.98;10.23;;;;;;;3.82;53.56;94834.47;5039075;28;20101;-76
2023/04/06 10:20:53;;;;;;;18.02;10.50;;;;;;;3.83;54.21;94807.19;5058617;28;20085;-80
2023/04/06 10:23:23;;;;;;;32.17;11.70;;;;;;;4.18;53.87;94881.19;5043260;28;20577;-76
2023/04/06 10:25:57;;;;;;;20.60;12.57;;;;;;;4.11;53.71;94850.91;5042558;28;20036;-80
2023/04/06 10:28:23;;;;;;;16.23;11.18;;;;;;;4.55;53.35;94849.13;5050194;28;20395;-77
2023/04/06 10:30:57;;;;;;;18.45;9.90;;;;;;;4.64;52.75;94866.06;5037255;28;20055;-79
2023/04/06 10:33:22;;;;;;;16.98;11.15;;;;;;;4.84;52.66;94847.13;5036333;28;20094;-76
2023/04/06 10:35:48;;;;;;;23.10;11.45;;;;;;;5.37;51.49;94868.19;5034833;28;20042;-76
2023/04/06 10:38:14;;;;;;;16.60;8.85;;;;;;;4.91;50.54;94853.78;5037684;28;20029;-75
2023/04/06 10:40:42;;;;;;;17.55;10.98;;;;;;;5.13;51.03;94852.94;5040973;28;20132;-75
2023/04/06 10:43:20;;;;;;;17.60;10.77;;;;;;;4.81;51.54;94866.00;5042445;28;20060;-75
2023/04/06 10:45:55;;;;;;;19.83;11.07;;;;;;;5.22;50.92;94878.56;5040125;28;20063;-76
2023/04/06 10:48:20;;;;;;;19.10;10.80;;;;;;;5.54;49.87;94826.00;5037440;28;20490;-77
2023/04/06 10:50:51;;;;;;;19.50;10.73;;;;;;;5.97;49.65;94845.31;5042809;28;20040;-76
2023/04/06 10:53:26;;;;;;;15.63;10.02;;;;;;;5.50;49.44;94801.25;5044449;28;20040;-76
2023/04/06 10:55:55;;;;;;;17.92;9.85;;;;;;;6.03;49.79;94849.56;5045370;28;20097;-77
2023/04/06 10:58:24;;;;;;;18.23;11.05;;;;;;;6.42;48.41;94844.81;5045217;28;20097;-76
2023/04/06 11:00:50;;;;;;;22.15;10.95;;;;;;;6.52;47.84;94829.88;5043161;28;20063;-77
2023/04/06 11:03:16;;;;;;;16.92;10.20;;;;;;;6.75;46.99;94846.31;5052647;28;20482;-78
2023/04/06 11:05:49;;;;;;;16.58;9.75;;;;;;;6.09;46.95;94859.91;5046202;28;20102;-76
2023/04/06 11:08:32;;;;;;;18.17;10.23;;;;;;;5.20;48.15;94761.53;5043420;28;20036;-77
2023/04/06 11:11:15;;;;;;;23.90;11.32;;;;;;;5.96;47.29;94802.41;5034726;28;20814;-77
2023/04/06 11:13:47;;;;;;;15.95;10.52;;;;;;;5.78;48.47;94855.41;5034163;28;20081;-78
2023/04/06 11:16:23;;;;;;;15.10;9.88;;;;;;;5.73;48.64;94844.84;5034664;28;20601;-76
2023/04/06 11:18:56;;;;;;;17.75;10.15;;;;;;;6.07;48.58;94840.13;5032117;28;20044;-77
2023/04/06 11:21:47;;;;;;;17.25;9.65;;;;;;;5.95;47.18;94837.66;5037529;28;20044;-77
2023/04/06 11:24:15;;;;;;;14.43;9.05;;;;;;;5.99;47.46;94841.41;5041501;28;20545;-76
2023/04/06 11:26:48;;;;;;;13.55;9.38;;;;;;;5.35;47.85;94723.03;5044404;28;20682;-76